Time;durP1;ratioP1;P1;durP2;ratioP2;P2;SDS_P1;SDS_P2;PMS_P1;PMS_P2;Temp;Humidity;BMP_temperature;BMP_pressure;BME280_temperature;BME280_humidity;BME280_pressure;Samples;Min_cycle;Max_cycle;Signal;HPM_P1;HPM_P2
2022/11/07 00:01:31;;;;;;;129.50;46.13;;;;;;;;;;5093474;27;20027;-69
2022/11/07 00:03:56;;;;;;;132.73;46.77;;;;;;;;;;5109398;27;20280;-69
2022/11/07 00:06:21;;;;;;;133.60;47.05;;;;;;;;;;5117697;27;20031;-69
2022/11/07 00:08:48;;;;;;;150.18;47.03;;;;;;;;;;5106791;27;20019;-70
2022/11/07 00:11:13;;;;;;;132.15;46.55;;;;;;;;;;5106518;27;20485;-70
2022/11/07 00:13:39;;;;;;;136.13;46.58;;;;;;;;;;5087985;28;20055;-69
2022/11/07 00:16:05;;;;;;;136.27;47.60;;;;;;;;;;5088924;27;20055;-69
2022/11/07 00:18:30;;;;;;;139.73;46.40;;;;;;;;;;5109527;27;20335;-69
2022/11/07 00:20:59;;;;;;;137.18;46.72;;;;;;;;;;5103699;27;20115;-68
2022/11/07 00:23:25;;;;;;;131.30;44.75;;;;;;;;;;5088613;28;20126;-69
2022/11/07 00:25:50;;;;;;;158.67;47.80;;;;;;;;;;5087941;28;20465;-69
2022/11/07 00:28:15;;;;;;;145.43;46.20;;;;;;;;;;5088199;27;20272;-69
2022/11/07 00:30:40;;;;;;;129.07;44.17;;;;;;;;;;5106453;27;20272;-69
2022/11/07 00:33:06;;;;;;;141.83;46.67;;;;;;;;;;5108416;27;20035;-71
2022/11/07 00:35:31;;;;;;;137.48;45.78;;;;;;;;;;5105623;27;20280;-70
2022/11/07 00:37:56;;;;;;;129.45;46.38;;;;;;;;;;5102966;27;20127;-69
2022/11/07 00:40:22;;;;;;;144.90;45.93;;;;;;;;;;5093092;28;20052;-69
2022/11/07 00:42:47;;;;;;;158.07;47.90;;;;;;;;;;5093529;27;20351;-69
2022/11/07 00:45:12;;;;;;;135.20;47.00;;;;;;;;;;5086224;28;20031;-70
2022/11/07 00:47:38;;;;;;;134.85;46.13;;;;;;;;;;5106450;27;20039;-70
2022/11/07 00:50:04;;;;;;;139.05;47.08;;;;;;;;;;5101622;27;20028;-69
2022/11/07 00:52:29;;;;;;;145.32;46.35;;;;;;;;;;5110556;27;20020;-70
2022/11/07 00:54:54;;;;;;;151.75;45.15;;;;;;;;;;5084647;28;20024;-70
2022/11/07 00:57:19;;;;;;;142.23;44.83;;;;;;;;;;5088249;28;20027;-70
2022/11/07 00:59:45;;;;;;;141.38;45.92;;;;;;;;;;5104670;27;20030;-69
2022/11/07 01:02:10;;;;;;;155.40;47.72;;;;;;;;;;5087157;28;20029;-69
2022/11/07 01:07:20;;;;;;;155.93;46.45;;;;;;;;;;5103694;28;20085;-70
2022/11/07 01:09:45;;;;;;;145.27;46.40;;;;;;;;;;5090875;27;20487;-70
2022/11/07 01:12:10;;;;;;;154.95;46.83;;;;;;;;;;5088288;28;20509;-70
2022/11/07 01:14:35;;;;;;;152.93;48.28;;;;;;;;;;5111080;27;20676;-70
2022/11/07 01:17:01;;;;;;;156.03;47.40;;;;;;;;;;5098241;27;20099;-70
2022/11/07 01:19:26;;;;;;;146.60;47.73;;;;;;;;;;5107476;27;20384;-71
2022/11/07 01:21:51;;;;;;;140.88;45.17;;;;;;;;;;5103847;27;20280;-69
2022/11/07 01:24:17;;;;;;;146.48;45.42;;;;;;;;;;5104696;27;20038;-70
2022/11/07 01:26:43;;;;;;;155.00;46.08;;;;;;;;;;5089814;28;20023;-71
2022/11/07 01:29:09;;;;;;;136.30;45.63;;;;;;;;;;5115459;27;20027;-70
2022/11/07 01:31:35;;;;;;;159.20;47.28;;;;;;;;;;5087227;28;20398;-69
2022/11/07 01:34:00;;;;;;;150.70;45.95;;;;;;;;;;5102080;28;20062;-70
2022/11/07 01:36:25;;;;;;;144.20;46.75;;;;;;;;;;5109718;28;20473;-70
2022/11/07 01:38:51;;;;;;;138.48;44.28;;;;;;;;;;5108941;27;20023;-70
2022/11/07 01:41:21;;;;;;;136.07;43.03;;;;;;;;;;5101833;27;20089;-70
2022/11/07 01:43:56;;;;;;;122.55;41.60;;;;;;;;;;5104313;28;20035;-70
2022/11/07 01:46:24;;;;;;;114.13;37.20;;;;;;;;;;5094569;27;20032;-70
2022/11/07 01:48:57;;;;;;;113.10;39.60;;;;;;;;;;5088999;28;20441;-70
2022/11/07 01:51:22;;;;;;;115.03;39.35;;;;;;;;;;5086516;28;20103;-69
2022/11/07 01:53:48;;;;;;;107.75;39.08;;;;;;;;;;5104168;28;20107;-70
2022/11/07 01:56:16;;;;;;;102.88;37.35;;;;;;;;;;5107088;28;20019;-70
2022/11/07 01:58:44;;;;;;;107.82;37.78;;;;;;;;;;5108916;28;20031;-71
2022/11/07 02:01:09;;;;;;;103.78;37.38;;;;;;;;;;5106450;28;20038;-71
2022/11/07 02:03:34;;;;;;;111.20;38.50;;;;;;;;;;5110339;28;20472;-70
2022/11/07 02:06:05;;;;;;;99.25;36.38;;;;;;;;;;5106452;28;20023;-70
2022/11/07 02:08:32;;;;;;;109.47;38.70;;;;;;;;;;5090810;28;20027;-70
2022/11/07 02:10:59;;;;;;;120.60;40.13;;;;;;;;;;5105787;28;20024;-70
2022/11/07 02:13:26;;;;;;;112.32;40.45;;;;;;;;;;5105481;28;20050;-69
2022/11/07 02:15:51;;;;;;;111.90;39.58;;;;;;;;;;5100476;28;20073;-70
2022/11/07 02:18:17;;;;;;;107.07;37.83;;;;;;;;;;5104387;28;20027;-70
2022/11/07 02:20:43;;;;;;;100.47;37.13;;;;;;;;;;5109774;28;20519;-70
2022/11/07 02:23:12;;;;;;;96.57;36.00;;;;;;;;;;5087123;28;20295;-70
2022/11/07 02:25:37;;;;;;;103.43;36.50;;;;;;;;;;5089573;28;20024;-70
2022/11/07 02:28:05;;;;;;;97.88;35.08;;;;;;;;;;5111964;28;20438;-70
2022/11/07 02:30:33;;;;;;;92.93;34.38;;;;;;;;;;5100293;28;20065;-70
2022/11/07 02:32:58;;;;;;;101.93;36.97;;;;;;;;;;5098491;28;20020;-70
2022/11/07 02:35:36;;;;;;;96.32;35.03;;;;;;;;;;5088476;28;20028;-70
2022/11/07 02:38:20;;;;;;;101.78;36.20;;;;;;;;;;5088480;28;20073;-69
2022/11/07 02:40:47;;;;;;;99.60;36.08;;;;;;;;;;5101692;28;20031;-71
2022/11/07 02:43:13;;;;;;;103.53;35.47;;;;;;;;;;5102912;28;20024;-70
2022/11/07 02:45:40;;;;;;;104.20;33.10;;;;;;;;;;5099545;28;20024;-69
2022/11/07 02:48:06;;;;;;;98.43;35.75;;;;;;;;;;5102881;28;20035;-70
2022/11/07 02:50:31;;;;;;;98.97;35.58;;;;;;;10.74;nan;100912.09;5107291;28;20035;-70
2022/11/07 02:52:56;;;;;;;113.03;35.75;;;;;;;;;;5101159;28;20458;-70
2022/11/07 02:55:22;;;;;;;109.53;35.70;;;;;;;;;;5102843;28;20026;-70
2022/11/07 02:57:47;;;;;;;96.27;33.73;;;;;;;;;;5108897;27;20031;-70
2022/11/07 03:00:13;;;;;;;92.22;33.33;;;;;;;;;;5114034;27;20366;-70
2022/11/07 03:02:39;;;;;;;110.82;37.22;;;;;;;;;;5111533;27;20023;-69
2022/11/07 03:05:04;;;;;;;111.22;36.22;;;;;;;;;;5113110;27;20036;-70
2022/11/07 03:07:30;;;;;;;104.60;34.55;;;;;;;;;;5101542;28;20027;-70
2022/11/07 03:09:55;;;;;;;111.87;36.23;;;;;;;;;;5091521;28;20107;-69
2022/11/07 03:12:20;;;;;;;101.93;34.77;;;;;;;;;;5109383;28;20497;-70
2022/11/07 03:14:45;;;;;;;108.57;35.33;;;;;;;;;;5111114;27;20332;-70
2022/11/07 03:17:11;;;;;;;104.47;36.20;;;;;;;;;;5106019;27;20097;-70
2022/11/07 03:19:36;;;;;;;103.60;35.33;;;;;;;;;;5111046;27;20640;-70
2022/11/07 03:22:02;;;;;;;102.35;37.25;;;;;;;;;;5100796;27;20281;-72
2022/11/07 03:24:27;;;;;;;96.15;35.22;;;;;;;;;;5094651;28;20031;-70
2022/11/07 03:26:53;;;;;;;102.07;33.67;;;;;;;;;;5108385;27;20031;-69
2022/11/07 03:29:18;;;;;;;93.87;34.20;;;;;;;;;;5108229;27;20020;-71
2022/11/07 03:31:43;;;;;;;92.03;34.33;;;;;;;;;;5104247;27;20039;-70
2022/11/07 03:34:09;;;;;;;96.40;34.13;;;;;;;10.95;nan;100905.66;5095379;28;20035;-71
2022/11/07 03:36:34;;;;;;;99.47;35.28;;;;;;;;;;5104795;27;20098;-71
2022/11/07 03:38:59;;;;;;;99.03;34.63;;;;;;;;;;5107271;27;20473;-70
2022/11/07 03:41:25;;;;;;;92.90;33.67;;;;;;;;;;5106835;27;20059;-70
2022/11/07 03:43:50;;;;;;;109.90;36.30;;;;;;;;;;5106000;27;20311;-71
2022/11/07 03:46:16;;;;;;;91.37;34.13;;;;;;;;;;5083930;28;20473;-68
2022/11/07 03:48:41;;;;;;;97.95;34.17;;;;;;;;;;5113071;27;20355;-70
2022/11/07 03:51:07;;;;;;;80.25;33.08;;;;;;;;;;5085688;28;20028;-70
2022/11/07 03:53:32;;;;;;;87.22;33.70;;;;;;;;;;5110416;27;20068;-71
2022/11/07 03:55:58;;;;;;;90.88;35.33;;;;;;;;;;5106954;27;20020;-70
2022/11/07 03:58:24;;;;;;;91.38;33.00;;;;;;;;;;5094121;27;20996;-70
2022/11/07 04:00:50;;;;;;;90.57;34.33;;;;;;;;;;5111884;27;20077;-69
2022/11/07 04:03:15;;;;;;;89.82;34.72;;;;;;;;;;5095188;27;20027;-70
2022/11/07 04:05:40;;;;;;;88.80;34.47;;;;;;;;;;5088269;28;20028;-69
2022/11/07 04:08:06;;;;;;;92.80;33.80;;;;;;;;;;5090322;28;20081;-71
2022/11/07 04:10:31;;;;;;;91.93;33.88;;;;;;;;;;5092982;28;20477;-69
2022/11/07 04:18:25;;;;;;;82.97;33.22;;;;;;;;;;5098967;28;20497;-69
2022/11/07 04:20:51;;;;;;;89.88;37.67;;;;;;;;;;5109423;27;20035;-70
2022/11/07 04:23:16;;;;;;;86.78;35.50;;;;;;;;;;5103430;27;20497;-70
2022/11/07 04:28:25;;;;;;;78.90;34.05;;;;;;;;;;5102480;27;20112;-69
2022/11/07 04:30:51;;;;;;;80.63;34.10;;;;;;;;;;5104694;27;20062;-73
2022/11/07 04:33:16;;;;;;;75.43;33.13;;;;;;;;;;5089736;28;20024;-73
2022/11/07 04:35:41;;;;;;;76.20;32.30;;;;;;;;;;5105663;28;20080;-71
2022/11/07 04:38:07;;;;;;;75.25;31.85;;;;;;;;;;5106966;27;20089;-74
2022/11/07 04:40:32;;;;;;;73.43;32.95;;;;;;;;;;5111937;27;20030;-73
2022/11/07 04:42:58;;;;;;;72.93;31.50;;;;;;;;;;5087198;28;20114;-73
2022/11/07 04:45:23;;;;;;;73.35;32.05;;;;;;;;;;5107112;27;20030;-70
2022/11/07 04:47:48;;;;;;;69.00;32.10;;;;;;;;;;5105168;27;20020;-70
2022/11/07 04:50:15;;;;;;;68.53;32.00;;;;;;;;;;5089661;28;20080;-70
2022/11/07 04:52:41;;;;;;;76.43;32.00;;;;;;;;;;5105248;27;20031;-70
2022/11/07 04:55:07;;;;;;;76.10;32.95;;;;;;;;;;5088758;27;20028;-71
2022/11/07 04:57:33;;;;;;;75.53;32.40;;;;;;;;;;5104990;27;20036;-70
2022/11/07 04:59:58;;;;;;;81.72;34.17;;;;;;;;;;5109738;27;20022;-70
2022/11/07 05:02:23;;;;;;;83.90;33.17;;;;;;;;;;5110460;27;20036;-70
2022/11/07 05:04:49;;;;;;;81.15;34.35;;;;;;;;;;5091012;27;20333;-70
2022/11/07 05:07:15;;;;;;;81.05;32.13;;;;;;;;;;5090981;28;20111;-69
2022/11/07 05:09:40;;;;;;;71.85;33.40;;;;;;;;;;5107080;27;20020;-70
2022/11/07 05:12:05;;;;;;;77.53;32.43;;;;;;;;;;5108400;27;20382;-69
2022/11/07 05:14:30;;;;;;;80.70;33.63;;;;;;;;;;5103129;27;20279;-72
2022/11/07 05:16:56;;;;;;;84.13;34.58;;;;;;;;;;5081555;28;20027;-69
2022/11/07 05:19:21;;;;;;;79.15;32.95;;;;;;;;;;5083737;27;20062;-69
2022/11/07 05:23:10;;;;;;;82.40;33.77;;;;;;;;;;5086457;28;20076;-70
2022/11/07 05:24:32;;;;;;;84.60;34.35;;;;;;;;;;5107785;27;20035;-70
2022/11/07 05:26:58;;;;;;;92.60;34.23;;;;;;;;;;5113985;27;20038;-70
2022/11/07 05:29:23;;;;;;;91.80;34.83;;;;;;;;;;5104314;27;20275;-68
2022/11/07 05:31:49;;;;;;;88.90;34.75;;;;;;;;;;5091934;28;20153;-70
2022/11/07 05:34:14;;;;;;;88.43;35.60;;;;;;;;;;5089238;28;20039;-70
2022/11/07 05:36:39;;;;;;;87.30;35.03;;;;;;;;;;5082970;28;20702;-70
2022/11/07 05:39:04;;;;;;;88.18;34.97;;;;;;;;;;5071225;28;20035;-70
2022/11/07 05:41:30;;;;;;;95.00;35.93;;;;;;;;;;5080277;28;20027;-69
2022/11/07 05:43:55;;;;;;;91.90;36.03;;;;;;;;;;5084539;28;20039;-70
2022/11/07 05:46:20;;;;;;;87.60;34.38;;;;;;;;;;5099968;28;20315;-70
2022/11/07 05:48:45;;;;;;;88.43;36.33;;;;;;;;;;5105262;27;20024;-68
2022/11/07 05:51:11;;;;;;;84.33;34.37;;;;;;;;;;5101767;27;20050;-70
2022/11/07 05:53:36;;;;;;;91.28;34.88;;;;;;;;;;5100625;28;20329;-68
2022/11/07 05:56:02;;;;;;;79.67;32.40;;;;;;;;;;5097851;28;20020;-68
2022/11/07 05:58:27;;;;;;;88.28;34.65;;;;;;;;;;5088092;28;20023;-69
2022/11/07 06:00:52;;;;;;;85.73;33.60;;;;;;;;;;5102732;28;20461;-69
2022/11/07 06:03:18;;;;;;;83.93;34.33;;;;;;;;;;5109328;28;20268;-70
2022/11/07 06:05:44;;;;;;;77.38;33.13;;;;;;;;;;5086667;28;20650;-69
2022/11/07 06:08:11;;;;;;;76.60;33.10;;;;;;;10.75;nan;101004.09;5085917;28;20077;-69
2022/11/07 06:10:37;;;;;;;76.15;32.95;;;;;;;;;;5100649;28;20469;-70
2022/11/07 06:13:04;;;;;;;74.82;31.85;;;;;;;;;;5098618;28;20058;-69
2022/11/07 06:15:30;;;;;;;76.75;33.80;;;;;;;;;;5101102;28;20038;-70
2022/11/07 06:17:57;;;;;;;72.40;31.60;;;;;;;;;;5102427;28;20019;-71
2022/11/07 06:20:22;;;;;;;77.22;32.35;;;;;;;;;;5100049;28;20431;-70
2022/11/07 06:22:48;;;;;;;66.37;30.97;;;;;;;;;;5099046;28;20065;-73
2022/11/07 06:25:13;;;;;;;65.87;31.90;;;;;;;;;;5085560;28;20354;-73
2022/11/07 06:27:38;;;;;;;65.53;30.10;;;;;;;;;;5098665;28;20287;-73
2022/11/07 06:30:04;;;;;;;64.97;30.40;;;;;;;;;;5100137;28;20410;-73
2022/11/07 06:32:29;;;;;;;60.58;29.70;;;;;;;;;;5099556;27;20276;-74
2022/11/07 06:34:54;;;;;;;62.90;30.25;;;;;;;;;;5103871;27;20023;-74
2022/11/07 06:37:20;;;;;;;64.53;30.42;;;;;;;;;;5085103;28;20465;-75
2022/11/07 06:39:45;;;;;;;60.60;29.63;;;;;;;;;;5105342;27;20034;-73
2022/11/07 06:42:10;;;;;;;58.63;29.30;;;;;;;;;;5091201;28;20469;-73
2022/11/07 06:44:35;;;;;;;56.43;27.63;;;;;;;;;;5092680;27;20378;-73
2022/11/07 06:47:01;;;;;;;57.30;28.33;;;;;;;;;;5093427;27;20024;-70
2022/11/07 06:49:26;;;;;;;65.40;29.63;;;;;;;;;;5089965;27;20043;-69
2022/11/07 06:51:51;;;;;;;57.30;29.10;;;;;;;;;;5106941;27;20030;-69
2022/11/07 06:54:17;;;;;;;54.03;28.70;;;;;;;;;;5094179;27;20357;-69
2022/11/07 06:56:42;;;;;;;54.92;27.80;;;;;;;;;;5090628;27;20619;-71
2022/11/07 06:59:07;;;;;;;54.92;28.65;;;;;;;;;;5093368;27;20023;-68
2022/11/07 07:01:33;;;;;;;55.03;27.90;;;;;;;;;;5111493;27;20145;-70
2022/11/07 07:03:59;;;;;;;49.78;26.85;;;;;;;;;;5092388;28;20665;-70
2022/11/07 07:06:24;;;;;;;49.05;26.08;;;;;;;;;;5086504;28;20482;-71
2022/11/07 07:08:50;;;;;;;47.33;26.25;;;;;;;;;;5111708;27;20081;-71
2022/11/07 07:11:15;;;;;;;52.80;27.42;;;;;;;;;;5091560;28;20028;-70
2022/11/07 07:13:41;;;;;;;47.70;25.98;;;;;;;;;;5112619;27;20044;-71
2022/11/07 07:16:06;;;;;;;50.53;26.50;;;;;;;;;;5103745;27;20027;-69
2022/11/07 07:18:32;;;;;;;48.47;26.35;;;;;;;;;;5110010;27;20032;-70
2022/11/07 07:21:02;;;;;;;43.70;25.35;;;;;;;;;;5107723;27;20763;-71
2022/11/07 07:23:28;;;;;;;48.33;25.70;;;;;;;;;;5086147;27;20107;-70
2022/11/07 07:25:53;;;;;;;48.78;25.88;;;;;;;;;;5096102;27;20254;-71
2022/11/07 07:28:18;;;;;;;46.20;26.13;;;;;;;;;;5110172;27;20051;-69
2022/11/07 07:30:44;;;;;;;45.17;25.10;;;;;;;;;;5096174;28;20028;-70
2022/11/07 07:33:09;;;;;;;44.30;24.87;;;;;;;;;;5107439;27;20465;-69
2022/11/07 07:35:34;;;;;;;44.37;24.97;;;;;;;;;;5108021;27;20849;-71
2022/11/07 07:38:00;;;;;;;44.30;25.60;;;;;;;;;;5102360;28;20040;-70
2022/11/07 07:40:25;;;;;;;48.17;25.27;;;;;;;;;;5111766;27;20019;-71
2022/11/07 07:43:02;;;;;;;50.83;26.93;;;;;;;;;;5104986;28;20282;-68
2022/11/07 07:45:28;;;;;;;47.67;26.38;;;;;;;;;;5089848;28;20034;-71
2022/11/07 07:47:58;;;;;;;48.95;26.70;;;;;;;;;;5107487;27;20028;-70
2022/11/07 07:50:23;;;;;;;45.10;26.05;;;;;;;;;;5103911;27;20051;-68
2022/11/07 07:52:53;;;;;;;49.45;25.25;;;;;;;;;;5097851;27;20075;-70
2022/11/07 07:55:19;;;;;;;50.83;27.77;;;;;;;;;;5104098;27;20059;-69
2022/11/07 07:57:44;;;;;;;53.00;28.27;;;;;;;;;;5097504;27;20055;-69
2022/11/07 08:00:10;;;;;;;52.03;28.53;;;;;;;;;;5100411;27;20031;-72
2022/11/07 08:02:35;;;;;;;53.85;27.48;;;;;;;;;;5102599;27;20077;-72
2022/11/07 08:05:01;;;;;;;51.60;28.00;;;;;;;;;;5088524;27;20423;-69
2022/11/07 08:07:26;;;;;;;51.67;29.70;;;;;;;;;;5088961;28;20035;-69
2022/11/07 08:09:51;;;;;;;57.10;30.90;;;;;;;;;;5088660;27;20123;-71
2022/11/07 08:12:16;;;;;;;58.70;31.63;;;;;;;;;;5107429;27;20874;-69
2022/11/07 08:14:42;;;;;;;66.50;29.90;;;;;;;;;;5110551;27;20034;-68
2022/11/07 08:17:07;;;;;;;56.43;30.57;;;;;;;;;;5091664;28;20027;-68
2022/11/07 08:19:32;;;;;;;55.80;29.10;;;;;;;11.10;nan;101024.75;5109959;27;20085;-69
2022/11/07 08:21:57;;;;;;;53.08;29.27;;;;;;;;;;5110602;27;20703;-69
2022/11/07 08:24:23;;;;;;;52.73;28.87;;;;;;;;;;5094666;27;20038;-69
2022/11/07 08:26:48;;;;;;;51.10;28.47;;;;;;;;;;5101387;27;20055;-68
2022/11/07 08:29:13;;;;;;;50.87;29.03;;;;;;;;;;5099208;27;20290;-69
2022/11/07 08:31:38;;;;;;;46.57;28.07;;;;;;;;;;5100911;27;20032;-69
2022/11/07 08:34:04;;;;;;;49.90;27.63;;;;;;;;;;5103737;27;20034;-69
2022/11/07 08:36:29;;;;;;;49.95;28.27;;;;;;;;;;5106008;28;20275;-71
2022/11/07 08:38:54;;;;;;;48.00;27.83;;;;;;;;;;5111639;27;20463;-69
2022/11/07 08:41:19;;;;;;;48.23;27.93;;;;;;;;;;5087433;28;20047;-69
2022/11/07 08:43:45;;;;;;;50.13;28.17;;;;;;;;;;5111583;27;20039;-69
2022/11/07 08:46:10;;;;;;;57.97;28.20;;;;;;;;;;5104184;27;20027;-69
2022/11/07 08:48:35;;;;;;;54.23;29.23;;;;;;;;;;5110316;27;20148;-68
2022/11/07 08:51:04;;;;;;;50.60;29.53;;;;;;;11.50;nan;101046.38;5087210;27;20055;-70
2022/11/07 08:53:29;;;;;;;52.20;29.38;;;;;;;;;;5096887;27;20031;-69
2022/11/07 08:56:08;;;;;;;53.28;29.27;;;;;;;;;;5092704;28;20500;-69
2022/11/07 08:58:34;;;;;;;55.67;30.27;;;;;;;;;;5093745;27;20049;-70
2022/11/07 09:00:59;;;;;;;47.15;27.83;;;;;;;;;;5104106;27;20035;-69
2022/11/07 09:03:25;;;;;;;52.92;29.90;;;;;;;;;;5104308;27;20477;-71
2022/11/07 09:05:50;;;;;;;49.33;29.27;;;;;;;;;;5111633;27;20035;-72
2022/11/07 09:08:16;;;;;;;53.90;29.37;;;;;;;;;;5111204;27;20108;-72
2022/11/07 09:10:41;;;;;;;51.63;28.80;;;;;;;;;;5102316;27;20473;-71
2022/11/07 09:13:06;;;;;;;52.37;29.83;;;;;;;;;;5090864;28;20051;-71
2022/11/07 09:15:31;;;;;;;44.33;27.80;;;;;;;;;;5109582;27;20302;-72
2022/11/07 09:18:04;;;;;;;52.47;28.30;;;;;;;;;;5112569;27;20279;-72
2022/11/07 09:20:29;;;;;;;49.83;29.67;;;;;;;;;;5092006;27;20777;-71
2022/11/07 09:22:55;;;;;;;49.38;29.13;;;;;;;;;;5093344;27;20036;-74
2022/11/07 09:25:20;;;;;;;54.72;28.92;;;;;;;;;;5103516;28;20024;-74
2022/11/07 09:27:46;;;;;;;49.77;28.13;;;;;;;;;;5089537;27;20439;-74
2022/11/07 09:30:11;;;;;;;53.38;29.00;;;;;;;;;;5112220;27;20386;-70
2022/11/07 09:32:36;;;;;;;55.55;30.27;;;;;;;;;;5088099;28;20092;-70
2022/11/07 09:35:02;;;;;;;51.30;29.37;;;;;;;;;;5105720;28;20047;-70
2022/11/07 09:37:27;;;;;;;55.67;29.17;;;;;;;;;;5111270;27;20026;-72
2022/11/07 09:39:52;;;;;;;56.57;32.63;;;;;;;;;;5087647;28;20062;-71
2022/11/07 09:42:17;;;;;;;51.20;30.47;;;;;;;;;;5110783;27;20028;-71
2022/11/07 09:44:52;;;;;;;58.03;30.37;;;;;;;;;;5107235;27;20038;-71
2022/11/07 09:47:21;;;;;;;72.75;32.17;;;;;;;;;;5115497;27;20024;-71
2022/11/07 09:49:49;;;;;;;82.65;32.38;;;;;;;;;;5088468;28;20540;-71
2022/11/07 09:52:16;;;;;;;51.97;29.73;;;;;;;;;;5105846;28;20032;-73
2022/11/07 09:54:44;;;;;;;46.55;28.30;;;;;;;;;;5108850;28;20047;-73
2022/11/07 09:57:14;;;;;;;50.53;29.20;;;;;;;;;;5094645;27;20027;-73
2022/11/07 09:59:54;;;;;;;57.55;30.90;;;;;;;;;;5105377;28;20095;-73
2022/11/07 10:02:24;;;;;;;46.75;28.20;;;;;;;;;;5115459;28;20019;-72
2022/11/07 10:04:54;;;;;;;52.67;29.13;;;;;;;;;;5092132;28;20046;-72
2022/11/07 10:07:28;;;;;;;56.17;30.52;;;;;;;;;;5092398;28;20477;-74
2022/11/07 10:10:03;;;;;;;53.85;29.95;;;;;;;;;;5108675;27;20023;-73
2022/11/07 10:12:40;;;;;;;53.83;31.05;;;;;;;;;;5079793;28;20070;-73
2022/11/07 10:15:23;;;;;;;55.63;29.33;;;;;;;;;;5091033;28;20023;-73
2022/11/07 10:18:05;;;;;;;60.85;31.17;;;;;;;;;;5096835;28;20024;-73
2022/11/07 10:21:09;;;;;;;56.60;31.27;;;;;;;;;;5084638;28;20055;-73
2022/11/07 10:23:34;;;;;;;55.40;30.52;;;;;;;;;;5050659;28;20767;-73
2022/11/07 10:26:19;;;;;;;56.90;31.20;;;;;;;;;;5033383;28;20033;-71
2022/11/07 10:28:47;;;;;;;65.18;31.20;;;;;;;;;;5048715;28;20056;-72
2022/11/07 10:31:13;;;;;;;56.50;31.30;;;;;;;;;;5048659;28;20033;-73
2022/11/07 10:33:44;;;;;;;55.25;32.78;;;;;;;;;;5050083;28;20037;-79
2022/11/07 10:36:19;;;;;;;57.88;34.03;;;;;;;;;;5049507;28;20036;-78
2022/11/07 10:38:44;;;;;;;69.95;36.28;;;;;;;;;;5056121;28;20040;-79
2022/11/07 10:41:12;;;;;;;64.68;33.05;;;;;;;;;;5053577;28;20044;-79
2022/11/07 10:43:39;;;;;;;55.50;30.02;;;;;;;;;;5052760;28;20851;-78
2022/11/07 10:46:09;;;;;;;63.13;32.65;;;;;;;;;;5047928;28;20522;-80
2022/11/07 10:48:35;;;;;;;57.00;33.17;;;;;;;;;;5044909;28;20036;-79
2022/11/07 10:51:00;;;;;;;58.10;32.40;;;;;;;;;;5035774;28;20029;-80
2022/11/07 10:53:26;;;;;;;60.57;34.37;;;;;;;;;;5058550;28;20112;-79
2022/11/07 10:55:52;;;;;;;56.08;31.52;;;;;;;;;;5086683;28;20277;-79
2022/11/07 10:58:20;;;;;;;63.83;34.72;;;;;;;;;;5091013;28;20038;-79
2022/11/07 11:01:17;;;;;;;60.58;33.20;;;;;;;;;;5087342;28;20031;-78
2022/11/07 11:03:44;;;;;;;60.92;34.17;;;;;;;;;;5057120;28;20044;-79
2022/11/07 11:06:10;;;;;;;62.90;34.45;;;;;;;;;;5087218;28;20025;-78
2022/11/07 11:08:36;;;;;;;66.03;36.80;;;;;;;;;;5100200;28;20084;-78
2022/11/07 11:11:12;;;;;;;68.85;35.67;;;;;;;;;;5097539;28;20030;-77
2022/11/07 11:13:37;;;;;;;70.78;38.63;;;;;;;;;;5111832;27;20047;-79
2022/11/07 11:16:10;;;;;;;75.37;37.33;;;;;;;;;;5094710;28;20039;-78
2022/11/07 11:18:35;;;;;;;65.13;35.55;;;;;;;;;;5096549;27;20079;-81
2022/11/07 11:21:01;;;;;;;66.13;36.03;;;;;;;;;;5105173;27;20102;-80
2022/11/07 11:23:30;;;;;;;66.28;35.38;;;;;;;12.97;nan;101087.94;5120904;27;20276;-79
2022/11/07 11:26:00;;;;;;;66.38;35.00;;;;;;;;;;5102003;27;20032;-79
2022/11/07 11:28:25;;;;;;;;;;;;;;;;;;5087828;27;20057;-79
2022/11/07 11:30:54;;;;;;;66.57;33.92;;;;;;;;;;5111344;27;20359;-81
2022/11/07 11:33:25;;;;;;;65.43;33.58;;;;;;;;;;5086020;28;20034;-70
2022/11/07 11:36:09;;;;;;;65.63;36.60;;;;;;;;;;5100682;27;20108;-70
2022/11/07 11:38:38;;;;;;;68.70;38.45;;;;;;;;;;5108061;27;20044;-70
2022/11/07 11:41:09;;;;;;;74.53;33.92;;;;;;;;;;5104434;27;20035;-80
2022/11/07 11:43:57;;;;;;;66.60;35.90;;;;;;;;;;5092470;27;20133;-80
2022/11/07 11:46:26;;;;;;;72.85;36.33;;;;;;;;;;5089499;28;20050;-80
2022/11/07 11:49:08;;;;;;;69.93;36.00;;;;;;;;;;5091264;27;20137;-79
2022/11/07 11:51:36;;;;;;;72.00;34.85;;;;;;;;;;5091071;28;20028;-77
2022/11/07 11:54:01;;;;;;;69.38;35.72;;;;;;;;;;5091767;27;20031;-81
2022/11/07 11:56:26;;;;;;;63.22;33.67;;;;;;;;;;5108643;27;20015;-79
2022/11/07 11:58:57;;;;;;;67.40;35.03;;;;;;;;;;5101125;27;20517;-79
2022/11/07 12:01:34;;;;;;;60.90;33.85;;;;;;;;;;5102375;27;20041;-78
2022/11/07 12:04:18;;;;;;;62.97;33.90;;;;;;;;;;5107614;27;20024;-69
2022/11/07 12:06:44;;;;;;;66.32;33.30;;;;;;;;;;5110197;27;22046;-70
2022/11/07 12:09:22;;;;;;;64.68;33.95;;;;;;;;;;5104941;27;20023;-69
2022/11/07 12:11:51;;;;;;;65.90;33.90;;;;;;;;;;5088306;28;20044;-80
2022/11/07 12:14:31;;;;;;;69.38;34.55;;;;;;;;;;5105296;27;20027;-80
2022/11/07 12:17:00;;;;;;;62.13;34.03;;;;;;;;;;5094211;28;20020;-77
2022/11/07 12:19:32;;;;;;;67.38;34.15;;;;;;;;;;5090107;27;20031;-79
2022/11/07 12:22:16;;;;;;;67.00;35.38;;;;;;;;;;5093066;27;20040;-80
2022/11/07 12:24:55;;;;;;;71.32;36.42;;;;;;;;;;5109308;27;20019;-73
2022/11/07 12:27:21;;;;;;;;;;;;;;;;;;5100300;27;20031;-73
2022/11/07 12:29:55;;;;;;;64.13;34.00;;;;;;;;;;5106517;27;19918;-73
2022/11/07 12:32:52;;;;;;;63.95;33.88;;;;;;;;;;5107560;28;20027;-79
2022/11/07 12:35:36;;;;;;;68.97;35.33;;;;;;;;;;5028759;28;20134;-79
2022/11/07 12:38:08;;;;;;;65.47;34.30;;;;;;;;;;5025935;28;20052;-80
2022/11/07 12:40:39;;;;;;;64.35;32.88;;;;;;;;;;5032151;28;20071;-81
2022/11/07 12:43:11;;;;;;;68.80;34.15;;;;;;;;;;5029067;28;20040;-80
2022/11/07 12:45:56;;;;;;;67.07;34.70;;;;;;;;;;5037820;28;20092;-80
2022/11/07 12:48:39;;;;;;;64.82;34.28;;;;;;;;;;5036420;28;20252;-80
2022/11/07 12:51:14;;;;;;;60.83;32.72;;;;;;;;;;5026085;28;20124;-77
2022/11/07 12:53:58;;;;;;;66.47;33.20;;;;;;;;;;5011481;28;20029;-79
2022/11/07 12:56:27;;;;;;;63.05;32.72;;;;;;;;;;5022812;28;20052;-80
2022/11/07 12:58:53;;;;;;;65.53;32.83;;;;;;;;;;5018400;28;20571;-78
2022/11/07 13:01:21;;;;;;;65.53;33.72;;;;;;;;;;5030186;28;20156;-78
2022/11/07 13:03:56;;;;;;;65.23;33.60;;;;;;;;;;5018436;28;20486;-78
2022/11/07 13:06:21;;;;;;;66.15;33.63;;;;;;;;;;5022206;28;20083;-79
2022/11/07 13:08:46;;;;;;;62.63;33.77;;;;;;;;;;5030131;28;20120;-80
2022/11/07 13:11:30;;;;;;;62.05;32.85;;;;;;;;;;5072971;27;20885;-79
2022/11/07 13:13:59;;;;;;;61.75;32.33;;;;;;;;;;5086027;28;20040;-79
2022/11/07 13:16:27;;;;;;;64.30;32.85;;;;;;;;;;5088979;28;20424;-80
2022/11/07 13:18:52;;;;;;;58.60;32.63;;;;;;;;;;5110989;27;20023;-81
2022/11/07 13:21:18;;;;;;;68.75;35.40;;;;;;;;;;5108690;27;20020;-81
2022/11/07 13:23:43;;;;;;;72.32;36.25;;;;;;;;;;5112587;27;20057;-77
2022/11/07 13:26:09;;;;;;;71.13;36.15;;;;;;;;;;5104901;27;20027;-77
2022/11/07 13:28:35;;;;;;;68.40;34.40;;;;;;;;;;5106021;27;20032;-78
2022/11/07 13:31:01;;;;;;;65.15;33.30;;;;;;;;;;5106938;27;20028;-78
2022/11/07 13:33:30;;;;;;;61.30;30.90;;;;;;;;;;5086110;28;20141;-79
2022/11/07 13:35:57;;;;;;;63.05;31.95;;;;;;;;;;5114640;27;20047;-69
2022/11/07 13:38:23;;;;;;;59.30;32.78;;;;;;;;;;5108004;27;20099;-69
2022/11/07 13:40:51;;;;;;;65.20;32.53;;;;;;;;;;5091163;28;20430;-79
2022/11/07 13:43:18;;;;;;;61.00;32.83;;;;;;;;;;5109963;27;20023;-78
2022/11/07 13:45:48;;;;;;;56.58;30.65;;;;;;;;;;5111284;27;20027;-79
2022/11/07 13:48:18;;;;;;;59.90;32.00;;;;;;;;;;5092677;28;20393;-78
2022/11/07 13:50:48;;;;;;;60.00;33.60;;;;;;;;;;5110553;27;20023;-79
2022/11/07 13:53:19;;;;;;;60.80;32.05;;;;;;;;;;5107297;27;20042;-78
2022/11/07 13:55:57;;;;;;;60.38;33.38;;;;;;;;;;5089259;28;20031;-79
2022/11/07 13:58:24;;;;;;;60.50;32.95;;;;;;;;;;5093371;28;20027;-69
2022/11/07 14:00:49;;;;;;;63.85;31.90;;;;;;;;;;5111786;27;20098;-80
2022/11/07 14:03:22;;;;;;;61.27;33.47;;;;;;;;;;5102987;28;20123;-69
2022/11/07 14:05:47;;;;;;;56.72;33.25;;;;;;;;;;5087202;28;20287;-69
2022/11/07 14:08:17;;;;;;;59.20;32.27;;;;;;;;;;5085018;28;20392;-79
2022/11/07 14:10:46;;;;;;;57.70;31.00;;;;;;;;;;5108521;28;20031;-78
2022/11/07 14:13:11;;;;;;;59.10;31.40;;;;;;;;;;5087012;28;20071;-78
2022/11/07 14:15:43;;;;;;;61.50;32.57;;;;;;;;;;5087382;28;20107;-78
2022/11/07 14:18:13;;;;;;;61.53;32.55;;;;;;;;;;5111732;28;20377;-78
2022/11/07 14:20:44;;;;;;;61.22;32.08;;;;;;;;;;5112901;28;20028;-79
2022/11/07 14:23:11;;;;;;;63.03;34.25;;;;;;;;;;5089472;28;20028;-78
2022/11/07 14:25:36;;;;;;;70.00;36.00;;;;;;;;;;5107209;28;20059;-79